Time;durP1;ratioP1;P1;durP2;ratioP2;P2;SDS_P1;SDS_P2;PMS_P1;PMS_P2;Temp;Humidity;BMP_temperature;BMP_pressure;BME280_temperature;BME280_humidity;BME280_pressure;Samples;Min_cycle;Max_cycle;Signal;HPM_P1;HPM_P2
2022/07/05 00:01:41;;;;;;;6.70;4.22;;;;;;;13.74;83.59;102054.50;5030927;28;20037;-68
2022/07/05 00:04:07;;;;;;;7.18;4.10;;;;;;;13.69;83.76;102057.94;5025635;28;20026;-67
2022/07/05 00:06:32;;;;;;;6.78;4.07;;;;;;;13.71;84.28;102060.47;5024954;28;20056;-67
2022/07/05 00:08:57;;;;;;;8.50;3.92;;;;;;;13.66;84.34;102057.53;5038268;28;20033;-67
2022/07/05 00:11:22;;;;;;;6.43;4.05;;;;;;;13.69;84.58;102057.09;5032736;28;20029;-68
2022/07/05 00:13:48;;;;;;;7.43;4.50;;;;;;;13.71;83.73;102047.50;5038208;28;20025;-67
2022/07/05 00:16:13;;;;;;;7.57;4.32;;;;;;;13.65;84.00;102056.69;5040891;28;20458;-67
2022/07/05 00:18:38;;;;;;;7.38;4.22;;;;;;;13.57;84.29;102054.16;5039143;28;20719;-68
2022/07/05 00:21:04;;;;;;;6.22;4.25;;;;;;;13.54;84.58;102054.63;5029015;28;20040;-68
2022/07/05 00:23:29;;;;;;;7.85;4.47;;;;;;;13.49;85.28;102048.91;5030132;28;20033;-67
2022/07/05 00:25:54;;;;;;;7.13;4.70;;;;;;;13.47;85.26;102054.63;5043668;28;20037;-67
2022/07/05 00:28:19;;;;;;;7.60;5.72;;;;;;;13.46;85.49;102052.94;5035887;28;20029;-67
2022/07/05 00:30:45;;;;;;;8.10;5.60;;;;;;;13.42;85.30;102051.69;5024008;28;20393;-67
2022/07/05 00:33:10;;;;;;;6.90;5.07;;;;;;;13.28;85.06;102050.09;5032945;28;20150;-67
2022/07/05 00:35:35;;;;;;;10.35;5.68;;;;;;;13.19;85.31;102051.38;5025460;28;20037;-67
2022/07/05 00:38:01;;;;;;;8.07;5.25;;;;;;;13.11;85.58;102040.56;5024720;28;20033;-68
2022/07/05 00:40:26;;;;;;;8.40;5.40;;;;;;;13.09;85.92;102050.97;5036182;28;20018;-68
2022/07/05 00:42:52;;;;;;;9.07;5.20;;;;;;;13.02;86.32;102050.97;5038030;28;20071;-67
2022/07/05 00:45:17;;;;;;;8.48;5.68;;;;;;;12.98;86.89;102047.84;5039577;28;20033;-68
2022/07/05 00:47:42;;;;;;;7.13;5.38;;;;;;;12.98;87.27;102053.34;5039811;28;20547;-68
2022/07/05 00:50:08;;;;;;;8.45;5.60;;;;;;;12.96;87.49;102046.34;5028914;28;20040;-67
2022/07/05 00:52:33;;;;;;;8.82;5.43;;;;;;;12.95;87.79;102044.66;5039411;28;20035;-68
2022/07/05 00:54:59;;;;;;;7.80;5.10;;;;;;;12.99;87.93;102048.69;5030037;28;20389;-67
2022/07/05 00:57:24;;;;;;;7.65;5.70;;;;;;;12.95;87.60;102050.16;5038242;28;20072;-68
2022/07/05 00:59:50;;;;;;;10.40;5.70;;;;;;;12.99;87.72;102052.28;5029383;28;20021;-68
2022/07/05 01:02:16;;;;;;;8.02;4.70;;;;;;;13.04;88.09;102053.53;5037982;28;20033;-67
2022/07/05 01:04:41;;;;;;;7.95;5.05;;;;;;;12.97;87.64;102046.13;5028039;28;20056;-67
2022/07/05 01:07:07;;;;;;;9.00;4.97;;;;;;;13.01;87.59;102054.81;5044678;28;20045;-67
2022/07/05 01:09:34;;;;;;;9.20;5.28;;;;;;;13.00;87.56;102058.66;5039285;28;20040;-68
2022/07/05 01:11:59;;;;;;;8.00;4.82;;;;;;;12.99;87.99;102056.94;5024546;28;20033;-67
2022/07/05 01:14:24;;;;;;;7.60;4.80;;;;;;;12.94;88.07;102056.75;5034398;28;20029;-68
2022/07/05 01:16:51;;;;;;;8.55;5.80;;;;;;;12.88;87.89;102054.88;5039428;28;20031;-68
2022/07/05 01:19:17;;;;;;;8.50;5.28;;;;;;;12.77;88.11;102059.13;5035250;28;20087;-68
2022/07/05 01:21:44;;;;;;;9.88;5.78;;;;;;;12.70;88.38;102056.38;5034925;28;20033;-68
2022/07/05 01:24:12;;;;;;;10.18;5.97;;;;;;;12.65;88.78;102049.81;5029918;28;20025;-67
2022/07/05 01:26:38;;;;;;;7.80;5.90;;;;;;;12.62;89.37;102051.13;5036366;28;20389;-68
2022/07/05 01:29:04;;;;;;;8.65;5.53;;;;;;;12.57;89.03;102050.03;5037547;28;20554;-68
2022/07/05 01:31:30;;;;;;;7.68;5.60;;;;;;;12.59;89.44;102050.69;5044523;28;20043;-68
2022/07/05 01:33:55;;;;;;;13.65;6.30;;;;;;;12.57;89.71;102050.91;5024784;28;20017;-68
2022/07/05 01:36:21;;;;;;;8.40;5.63;;;;;;;12.55;89.36;102052.19;5035324;28;20037;-68
2022/07/05 01:38:46;;;;;;;8.63;5.72;;;;;;;12.51;89.55;102050.91;5027039;28;20486;-68
2022/07/05 01:41:11;;;;;;;8.50;5.78;;;;;;;12.52;90.36;102045.19;5030496;28;20060;-67
2022/07/05 01:43:37;;;;;;;9.35;6.25;;;;;;;12.54;90.01;102051.34;5042169;28;20040;-67
2022/07/05 01:46:05;;;;;;;8.73;5.38;;;;;;;12.53;89.88;102051.56;5034007;28;20447;-67
2022/07/05 01:48:33;;;;;;;10.40;5.82;;;;;;;12.50;89.88;102052.81;5029372;28;20032;-67
2022/07/05 01:51:05;;;;;;;;;;;;;;;12.64;87.56;102045.38;5038526;28;20028;-68
2022/07/05 01:53:31;;;;;;;9.02;6.05;;;;;;;12.42;89.56;102045.63;5038215;28;20007;-68
2022/07/05 01:55:58;;;;;;;9.10;6.00;;;;;;;12.39;89.85;102047.97;5038509;28;20025;-67
2022/07/05 01:58:27;;;;;;;10.10;6.35;;;;;;;12.30;90.11;102047.31;5036076;28;20424;-68
2022/07/05 02:00:54;;;;;;;10.27;6.30;;;;;;;12.33;89.97;102052.41;5034555;28;20021;-67
2022/07/05 02:03:20;;;;;;;9.77;6.57;;;;;;;12.29;89.40;102040.13;5042733;28;20627;-70
2022/07/05 02:05:46;;;;;;;8.57;6.18;;;;;;;12.28;89.18;102046.69;5029670;28;20069;-67
2022/07/05 02:08:13;;;;;;;9.30;6.20;;;;;;;12.33;89.79;102041.41;5030879;28;20044;-68
2022/07/05 02:10:39;;;;;;;9.27;6.15;;;;;;;12.33;89.76;102046.06;5042433;28;20033;-68
2022/07/05 02:13:05;;;;;;;10.63;6.30;;;;;;;12.33;89.27;102043.31;5028934;28;20671;-68
2022/07/05 02:15:35;;;;;;;12.68;7.20;;;;;;;12.23;89.43;102040.97;5028387;28;20121;-68
2022/07/05 02:18:01;;;;;;;10.43;6.95;;;;;;;12.15;89.54;102039.28;5026797;28;20159;-67
2022/07/05 02:20:27;;;;;;;8.57;6.70;;;;;;;12.09;90.17;102039.28;5041344;28;20026;-67
2022/07/05 02:22:53;;;;;;;11.85;7.18;;;;;;;12.05;91.17;102036.09;5026399;28;20445;-67
2022/07/05 02:25:19;;;;;;;13.32;7.25;;;;;;;12.08;90.97;102040.34;5034943;28;20036;-67
2022/07/05 02:27:44;;;;;;;10.35;7.10;;;;;;;12.14;90.39;102045.84;5035281;28;20044;-67
2022/07/05 02:30:10;;;;;;;10.30;6.93;;;;;;;12.14;90.41;102045.00;5043649;28;20362;-68
2022/07/05 02:32:35;;;;;;;9.32;6.40;;;;;;;12.11;90.11;102048.16;5033707;28;20100;-68
2022/07/05 02:35:02;;;;;;;9.95;6.60;;;;;;;12.07;89.68;102052.44;5033347;28;20032;-69
2022/07/05 02:37:27;;;;;;;10.48;7.22;;;;;;;11.99;89.63;102049.88;5036409;28;20544;-68
2022/07/05 02:39:54;;;;;;;10.05;7.13;;;;;;;11.92;90.54;102042.47;5037325;28;20163;-67
2022/07/05 02:42:19;;;;;;;10.63;7.25;;;;;;;11.84;90.76;102044.56;5033997;28;20503;-68
2022/07/05 02:44:44;;;;;;;10.52;7.63;;;;;;;11.77;90.83;102050.03;5034788;28;20028;-68
2022/07/05 02:47:09;;;;;;;10.57;8.13;;;;;;;11.78;91.73;102048.97;5043259;28;20529;-68
2022/07/05 02:49:35;;;;;;;10.75;7.75;;;;;;;11.85;91.99;102060.84;5031300;28;20029;-68
2022/07/05 02:52:00;;;;;;;10.50;7.80;;;;;;;11.92;91.84;102055.38;5027188;28;20037;-68
2022/07/05 02:54:25;;;;;;;11.65;8.80;;;;;;;12.02;91.79;102065.97;5036734;28;20041;-68
2022/07/05 02:56:51;;;;;;;13.07;9.10;;;;;;;12.02;91.18;102060.47;5038615;28;20466;-69
2022/07/05 02:59:16;;;;;;;11.10;8.35;;;;;;;12.06;91.43;102062.56;5036040;28;20142;-68
2022/07/05 03:01:41;;;;;;;12.23;8.98;;;;;;;12.04;91.40;102056.44;5031252;28;20493;-68
2022/07/05 03:04:07;;;;;;;11.25;7.85;;;;;;;11.99;91.08;102063.63;5030579;28;20029;-68
2022/07/05 03:06:32;;;;;;;12.05;7.35;;;;;;;11.97;90.83;102068.53;5040491;28;20037;-69
2022/07/05 03:08:57;;;;;;;10.43;7.97;;;;;;;11.84;91.43;102081.19;5036320;28;20021;-68
2022/07/05 03:11:23;;;;;;;10.95;8.65;;;;;;;11.83;91.83;102067.66;5032731;28;20037;-69
2022/07/05 03:13:48;;;;;;;13.02;8.25;;;;;;;11.89;91.64;102066.78;5041063;28;20032;-69
2022/07/05 03:16:14;;;;;;;11.68;8.45;;;;;;;11.91;92.20;102071.06;5036426;28;20040;-68
2022/07/05 03:18:39;;;;;;;13.27;9.35;;;;;;;11.93;91.82;102071.69;5027177;28;20033;-68
2022/07/05 03:21:04;;;;;;;12.13;9.00;;;;;;;11.97;91.12;102074.03;5027289;28;20044;-68
2022/07/05 03:23:29;;;;;;;13.52;9.27;;;;;;;11.92;91.26;102071.91;5029066;28;20398;-68
2022/07/05 03:25:55;;;;;;;10.98;8.15;;;;;;;11.83;91.58;102074.00;5036074;28;20124;-68
2022/07/05 03:28:20;;;;;;;13.32;9.13;;;;;;;11.77;91.70;102076.72;5037815;28;20041;-68
2022/07/05 03:30:45;;;;;;;12.40;9.45;;;;;;;11.73;92.01;102084.53;5028755;28;20029;-68
2022/07/05 03:33:10;;;;;;;12.95;8.95;;;;;;;11.79;92.37;102082.84;5026536;28;20053;-67
2022/07/05 03:35:36;;;;;;;14.88;9.88;;;;;;;11.81;92.56;102077.97;5037101;28;20451;-68
2022/07/05 03:38:01;;;;;;;13.15;10.35;;;;;;;11.81;92.46;102076.09;5032331;28;20037;-68
2022/07/05 03:40:26;;;;;;;14.40;10.75;;;;;;;11.80;93.06;102074.38;5029238;28;20017;-68
2022/07/05 03:42:52;;;;;;;16.73;11.90;;;;;;;11.83;93.14;102073.16;5034284;28;20116;-67
2022/07/05 03:45:17;;;;;;;15.88;12.25;;;;;;;11.85;93.60;102080.13;5041279;28;20393;-68
2022/07/05 03:47:42;;;;;;;16.60;12.05;;;;;;;11.93;94.14;102081.84;5038016;28;20494;-68
2022/07/05 03:50:08;;;;;;;16.15;11.70;;;;;;;12.06;93.93;102089.25;5034796;28;20029;-68
2022/07/05 03:52:33;;;;;;;15.20;11.30;;;;;;;12.13;93.19;102085.47;5036275;28;20051;-67
2022/07/05 03:54:59;;;;;;;14.02;10.80;;;;;;;12.19;92.86;102079.09;5039603;28;20047;-68
2022/07/05 03:57:24;;;;;;;13.73;10.23;;;;;;;12.18;92.72;102085.69;5037245;28;20036;-68
2022/07/05 03:59:49;;;;;;;14.88;10.55;;;;;;;12.23;92.82;102086.97;5035237;28;20098;-68
2022/07/05 04:02:15;;;;;;;14.93;10.95;;;;;;;12.28;92.88;102087.19;5031053;28;20029;-67
2022/07/05 04:04:40;;;;;;;15.70;10.43;;;;;;;12.29;92.96;102088.88;5036618;28;20112;-68
2022/07/05 04:07:05;;;;;;;16.10;12.32;;;;;;;12.28;93.20;102093.53;5024648;28;20061;-68
2022/07/05 04:09:31;;;;;;;17.95;11.40;;;;;;;12.30;93.46;102094.16;5025098;28;20025;-68
2022/07/05 04:11:56;;;;;;;16.02;12.20;;;;;;;12.31;92.92;102093.09;5040382;28;20053;-68
2022/07/05 04:14:21;;;;;;;16.88;12.95;;;;;;;12.37;93.28;102103.28;5029773;28;20496;-68
2022/07/05 04:16:47;;;;;;;17.20;13.48;;;;;;;12.48;94.35;102099.03;5035125;28;20029;-68
2022/07/05 04:19:12;;;;;;;17.67;13.68;;;;;;;12.53;93.61;102096.50;5030101;28;20041;-68
2022/07/05 04:21:37;;;;;;;20.85;13.50;;;;;;;12.61;94.11;102092.66;5029928;28;20017;-68
2022/07/05 04:24:03;;;;;;;17.25;12.50;;;;;;;12.63;93.54;102104.34;5036410;28;20091;-68
2022/07/05 04:26:28;;;;;;;17.70;13.00;;;;;;;12.75;93.11;102102.59;5039554;28;20107;-68
2022/07/05 04:28:53;;;;;;;21.45;14.38;;;;;;;12.87;92.73;102103.63;5036884;28;20040;-68
2022/07/05 04:31:18;;;;;;;18.92;13.63;;;;;;;12.94;92.57;102098.97;5031849;28;20039;-68
2022/07/05 04:33:44;;;;;;;17.35;12.70;;;;;;;12.95;92.28;102106.16;5041323;28;20063;-68
2022/07/05 04:36:09;;;;;;;19.30;13.30;;;;;;;12.96;93.38;102104.25;5039775;28;20030;-68
2022/07/05 04:38:34;;;;;;;22.23;13.85;;;;;;;12.99;93.18;102101.06;5038134;28;20683;-68
2022/07/05 04:41:00;;;;;;;20.42;13.90;;;;;;;13.06;93.70;102101.06;5029587;28;20033;-68
2022/07/05 04:43:25;;;;;;;20.55;14.27;;;;;;;13.08;93.68;102108.06;5028812;28;20083;-68
2022/07/05 04:45:50;;;;;;;23.58;16.08;;;;;;;13.15;94.01;102106.13;5028134;28;20041;-68
2022/07/05 04:48:16;;;;;;;20.88;15.02;;;;;;;13.15;93.79;102105.28;5030649;28;20026;-68
2022/07/05 04:50:41;;;;;;;24.13;16.42;;;;;;;13.20;93.98;102099.94;5032032;28;20031;-68
2022/07/05 04:53:06;;;;;;;28.02;18.60;;;;;;;13.26;92.86;102099.09;5027278;28;20437;-68
2022/07/05 04:55:32;;;;;;;31.13;19.20;;;;;;;13.39;93.67;102103.75;5032524;28;20036;-68
2022/07/05 04:57:58;;;;;;;29.05;20.25;;;;;;;13.55;93.72;102107.91;5040300;28;20060;-68
2022/07/05 05:00:23;;;;;;;29.10;19.10;;;;;;;13.65;93.47;102106.38;5034690;28;20386;-68
2022/07/05 05:02:49;;;;;;;24.52;18.20;;;;;;;13.75;93.94;102100.38;5031006;28;20029;-69
2022/07/05 05:05:14;;;;;;;30.00;20.90;;;;;;;13.83;94.10;102100.09;5040076;28;20045;-68
2022/07/05 05:07:44;;;;;;;31.33;20.80;;;;;;;13.89;94.10;102101.13;5032618;28;20033;-68
2022/07/05 05:10:09;;;;;;;37.17;22.23;;;;;;;13.92;92.71;102084.94;5028429;28;20045;-68
2022/07/05 05:12:35;;;;;;;33.03;21.67;;;;;;;14.01;92.83;102083.63;5039195;28;20331;-68
2022/07/05 05:15:00;;;;;;;37.17;23.88;;;;;;;14.09;92.54;102096.34;5029489;28;20349;-68
2022/07/05 05:17:33;;;;;;;36.80;24.02;;;;;;;14.19;92.51;102101.34;5041312;28;20020;-69
2022/07/05 05:19:58;;;;;;;44.78;25.83;;;;;;;14.33;91.46;102108.44;5037580;28;20033;-68
2022/07/05 05:22:23;;;;;;;45.58;25.58;;;;;;;14.42;89.56;102109.88;5028660;28;20017;-68
2022/07/05 05:24:49;;;;;;;41.85;27.50;;;;;;;14.51;87.70;102116.00;5032968;28;20075;-67
2022/07/05 05:27:14;;;;;;;38.03;26.00;;;;;;;14.59;86.91;102114.84;5034767;28;20089;-68
2022/07/05 05:29:39;;;;;;;42.10;25.77;;;;;;;14.68;87.80;102121.81;5031756;28;20025;-68
2022/07/05 05:32:05;;;;;;;37.58;25.55;;;;;;;14.74;88.82;102126.41;5036337;28;20406;-68
2022/07/05 05:34:30;;;;;;;43.55;28.05;;;;;;;14.82;88.29;102128.06;5030129;28;20055;-67
2022/07/05 05:36:55;;;;;;;41.72;26.92;;;;;;;14.88;85.75;102119.69;5030501;28;20025;-67
2022/07/05 05:39:21;;;;;;;43.42;26.92;;;;;;;14.95;84.19;102125.13;5027365;28;20158;-68
2022/07/05 05:41:46;;;;;;;37.30;26.25;;;;;;;15.07;85.13;102133.56;5036521;28;20041;-68
2022/07/05 05:44:11;;;;;;;43.63;27.17;;;;;;;15.13;83.91;102130.69;5038190;28;20084;-68
2022/07/05 05:46:36;;;;;;;42.30;27.75;;;;;;;15.20;84.53;102137.00;5031616;28;20022;-68
2022/07/05 05:49:02;;;;;;;42.00;27.10;;;;;;;15.29;84.94;102138.38;5035333;28;20033;-68
2022/07/05 05:51:27;;;;;;;48.05;27.02;;;;;;;15.38;82.64;102133.41;5032852;28;20025;-67
2022/07/05 05:53:52;;;;;;;39.65;25.98;;;;;;;15.47;81.94;102140.31;5033611;28;20061;-67
2022/07/05 05:56:18;;;;;;;41.53;25.95;;;;;;;15.58;81.96;102127.63;5031201;28;20061;-68
2022/07/05 05:58:43;;;;;;;44.00;25.50;;;;;;;15.66;81.49;102134.78;5026512;28;20029;-67
2022/07/05 06:01:08;;;;;;;40.15;25.60;;;;;;;15.75;80.42;102127.84;5025389;28;20025;-67
2022/07/05 06:03:33;;;;;;;38.83;25.27;;;;;;;15.80;81.42;102133.53;5024654;28;20029;-67
2022/07/05 06:05:59;;;;;;;36.08;24.23;;;;;;;15.83;78.86;102136.69;5031892;28;20496;-67
2022/07/05 06:08:24;;;;;;;35.40;23.45;;;;;;;15.95;79.58;102142.25;5036011;28;20021;-67
2022/07/05 06:10:49;;;;;;;34.22;23.55;;;;;;;16.00;78.61;102138.78;5036223;28;20029;-67
2022/07/05 06:13:15;;;;;;;36.65;21.95;;;;;;;16.04;77.44;102142.78;5035071;28;22295;-67
2022/07/05 06:15:41;;;;;;;33.55;22.08;;;;;;;16.06;76.94;102149.75;5030788;28;20116;-67
2022/07/05 06:18:08;;;;;;;41.22;21.30;;;;;;;16.15;77.35;102146.66;5026335;28;20017;-64
2022/07/05 06:20:35;;;;;;;35.33;21.90;;;;;;;16.20;76.75;102147.66;5033353;28;20034;-69
2022/07/05 06:23:01;;;;;;;34.43;21.47;;;;;;;16.27;75.39;102147.53;5035974;28;20033;-72
2022/07/05 06:25:27;;;;;;;34.50;23.80;;;;;;;16.23;75.43;102140.81;5040894;28;20171;-69
2022/07/05 06:28:11;;;;;;;35.05;21.30;;;;;;;16.38;76.19;102151.44;5034343;28;20424;-68
2022/07/05 06:30:37;;;;;;;38.00;23.98;;;;;;;16.36;74.79;102146.13;5038953;28;20409;-68
2022/07/05 06:33:03;;;;;;;32.92;23.42;;;;;;;16.38;75.63;102143.97;5028883;28;20064;-70
2022/07/05 06:35:29;;;;;;;34.58;22.13;;;;;;;16.46;75.90;102156.63;5030682;28;20421;-69
2022/07/05 06:37:58;;;;;;;34.72;20.30;;;;;;;16.52;74.94;102156.50;5036018;28;20080;-70
2022/07/05 06:40:32;;;;;;;31.35;21.13;;;;;;;16.58;74.60;102161.13;5043262;28;20017;-68
2022/07/05 06:43:00;;;;;;;33.75;21.15;;;;;;;16.64;73.21;102159.31;5036899;28;20030;-68
2022/07/05 06:45:26;;;;;;;30.05;20.25;;;;;;;16.71;72.57;102164.75;5042217;28;20031;-69
2022/07/05 06:47:57;;;;;;;32.83;21.33;;;;;;;16.76;73.46;102162.13;5030762;28;20456;-70
2022/07/05 06:50:24;;;;;;;32.30;20.30;;;;;;;16.82;73.59;102158.41;5034886;28;20037;-70
2022/07/05 06:52:49;;;;;;;32.67;20.98;;;;;;;16.90;72.39;102157.19;5036525;28;20104;-70
2022/07/05 06:55:14;;;;;;;29.30;19.55;;;;;;;16.93;72.32;102168.69;5025342;28;20052;-69
2022/07/05 06:57:40;;;;;;;28.13;20.00;;;;;;;16.95;73.57;102166.50;5014979;28;20503;-69
2022/07/05 07:00:05;;;;;;;26.40;16.60;;;;;;;16.91;71.91;102164.44;5024482;28;20434;-69
2022/07/05 07:02:31;;;;;;;30.38;18.98;;;;;;;16.88;71.25;102153.81;5021933;28;20018;-69
2022/07/05 07:04:56;;;;;;;28.10;19.80;;;;;;;16.97;71.43;102161.53;5026874;28;20382;-69
2022/07/05 07:10:05;;;;;;;29.73;19.58;;;;;;;17.02;71.53;102172.75;5024402;28;20095;-69
2022/07/05 07:12:31;;;;;;;26.55;18.15;;;;;;;17.15;72.03;102165.28;5020657;28;20029;-69
2022/07/05 07:14:57;;;;;;;27.02;18.58;;;;;;;17.22;71.57;102163.22;5025485;28;20025;-70
2022/07/05 07:17:23;;;;;;;27.27;18.63;;;;;;;17.40;71.22;102162.25;5019932;28;20029;-69
2022/07/05 07:19:49;;;;;;;29.98;18.55;;;;;;;17.64;70.87;102170.28;5034533;28;20024;-69
2022/07/05 07:22:14;;;;;;;28.02;19.10;;;;;;;17.82;69.30;102174.00;5030362;28;20369;-69
2022/07/05 07:24:39;;;;;;;27.67;19.88;;;;;;;17.92;69.63;102168.63;5027095;28;20033;-69
2022/07/05 07:27:06;;;;;;;28.02;18.88;;;;;;;17.99;68.98;102166.53;5016077;28;20061;-69
2022/07/05 07:29:34;;;;;;;27.45;18.77;;;;;;;18.15;70.57;102165.75;5023706;28;20034;-69
2022/07/05 07:32:00;;;;;;;28.65;17.55;;;;;;;18.29;69.30;102179.34;5024415;28;20049;-69
2022/07/05 07:34:27;;;;;;;23.15;15.18;;;;;;;18.44;68.05;102168.47;5033375;28;20473;-69
2022/07/05 07:36:53;;;;;;;24.38;15.55;;;;;;;18.60;68.86;102172.38;5018728;28;20018;-69
2022/07/05 07:39:19;;;;;;;21.75;14.68;;;;;;;18.69;67.90;102170.06;5020587;28;20152;-70
2022/07/05 07:41:44;;;;;;;25.25;17.10;;;;;;;18.69;67.73;102179.25;5018640;28;20359;-69
2022/07/05 07:44:09;;;;;;;22.88;15.93;;;;;;;18.71;68.20;102176.22;5025674;28;20477;-69
2022/07/05 07:46:36;;;;;;;25.33;16.15;;;;;;;18.73;68.53;102174.88;5024930;28;20030;-69
2022/07/05 07:49:01;;;;;;;31.58;17.60;;;;;;;18.86;68.53;102182.88;5024727;28;20469;-69
2022/07/05 07:51:27;;;;;;;28.92;18.92;;;;;;;19.05;67.97;102179.81;5017341;28;20026;-70
2022/07/05 07:53:52;;;;;;;30.52;17.80;;;;;;;19.30;68.17;102187.72;5022013;28;20057;-70
2022/07/05 07:56:18;;;;;;;29.42;17.88;;;;;;;19.35;68.37;102173.84;5025170;28;20025;-69
2022/07/05 07:58:43;;;;;;;24.70;16.63;;;;;;;19.42;67.18;102168.97;5024770;28;20033;-70
2022/07/05 08:01:10;;;;;;;24.38;14.90;;;;;;;19.45;67.51;102174.00;5024653;28;20481;-70
2022/07/05 08:03:37;;;;;;;27.77;15.33;;;;;;;19.56;68.30;102181.38;5026451;28;20120;-69
2022/07/05 08:06:02;;;;;;;24.00;15.43;;;;;;;19.68;67.12;102179.38;5022639;28;20057;-70
2022/07/05 08:08:27;;;;;;;25.55;13.70;;;;;;;19.69;66.21;102181.03;5019957;28;20394;-70
2022/07/05 08:10:53;;;;;;;26.50;13.80;;;;;;;19.73;66.55;102183.31;5025186;28;20036;-69
2022/07/05 08:13:18;;;;;;;23.55;13.18;;;;;;;19.83;66.29;102177.88;5022262;28;20017;-70
2022/07/05 08:15:43;;;;;;;26.00;14.43;;;;;;;19.90;65.38;102190.50;5025261;28;20120;-69
2022/07/05 08:23:36;;;;;;;24.95;14.18;;;;;;;20.12;64.71;102190.47;5028328;28;20401;-71
2022/07/05 08:26:02;;;;;;;29.25;16.67;;;;;;;20.19;64.07;102185.53;5023466;28;20026;-69
2022/07/05 08:28:28;;;;;;;25.85;14.70;;;;;;;20.28;65.87;102185.91;5019383;28;20409;-70
2022/07/05 08:30:53;;;;;;;23.20;14.43;;;;;;;20.39;64.49;102184.06;5031724;28;20041;-69
2022/07/05 08:33:18;;;;;;;26.80;14.13;;;;;;;20.42;64.26;102186.31;5018592;28;20025;-70
2022/07/05 08:35:44;;;;;;;26.20;13.73;;;;;;;20.46;64.54;102195.84;5027601;28;20393;-70
2022/07/05 08:38:09;;;;;;;26.10;14.98;;;;;;;20.45;63.95;102189.41;5023502;28;20021;-70
2022/07/05 08:40:37;;;;;;;25.08;14.95;;;;;;;20.40;63.87;102192.16;5021975;28;20450;-68
2022/07/05 08:43:06;;;;;;;27.17;14.93;;;;;;;20.52;64.83;102182.81;5017885;28;20037;-71
2022/07/05 08:45:32;;;;;;;26.92;13.63;;;;;;;20.70;64.29;102186.03;5016076;28;20042;-69
2022/07/05 08:47:59;;;;;;;23.52;14.02;;;;;;;20.50;64.54;102180.28;5033239;28;20428;-70
2022/07/05 08:50:26;;;;;;;24.15;14.65;;;;;;;20.35;63.77;102178.16;5028602;28;20447;-70
2022/07/05 08:52:52;;;;;;;24.48;13.23;;;;;;;20.31;65.83;102177.00;5014175;28;20042;-68
2022/07/05 08:55:18;;;;;;;23.27;12.90;;;;;;;20.33;66.67;102174.78;5016257;28;20060;-69
2022/07/05 08:57:44;;;;;;;22.70;12.93;;;;;;;20.47;66.60;102172.44;5036601;28;20021;-70
2022/07/05 09:00:10;;;;;;;21.38;12.63;;;;;;;20.54;63.53;102172.22;5024066;28;20729;-69
2022/07/05 09:02:35;;;;;;;25.15;14.48;;;;;;;20.50;63.71;102174.69;5024590;28;20040;-69
2022/07/05 09:05:02;;;;;;;22.75;12.70;;;;;;;20.56;64.04;102173.63;5033622;28;20049;-69
2022/07/05 09:07:29;;;;;;;22.02;13.23;;;;;;;20.68;61.76;102179.91;5031299;28;20041;-70
2022/07/05 09:09:58;;;;;;;20.67;14.32;;;;;;;20.94;62.63;102180.09;5023064;28;20120;-70
2022/07/05 09:12:23;;;;;;;23.70;12.15;;;;;;;21.18;61.70;102178.56;5039069;28;20025;-69
2022/07/05 09:14:50;;;;;;;24.45;14.70;;;;;;;21.46;60.28;102170.94;5025150;28;20036;-71
2022/07/05 09:17:15;;;;;;;25.15;12.98;;;;;;;21.45;57.94;102172.91;5024735;28;20731;-69
2022/07/05 09:19:41;;;;;;;17.55;9.93;;;;;;;21.48;55.75;102177.09;5014867;28;20018;-70
2022/07/05 09:22:08;;;;;;;25.42;14.93;;;;;;;21.67;57.60;102185.88;5016614;28;20116;-70
2022/07/05 09:24:43;;;;;;;28.02;16.20;;;;;;;21.92;58.09;102180.38;5024377;28;20037;-69
2022/07/05 09:27:08;;;;;;;20.88;11.70;;;;;;;22.02;55.22;102176.75;5020638;28;20028;-69
2022/07/05 09:29:33;;;;;;;17.50;10.18;;;;;;;21.91;52.25;102180.66;5037729;28;20401;-70
2022/07/05 09:31:59;;;;;;;13.23;7.60;;;;;;;22.09;51.39;102184.88;5031660;28;20062;-70
2022/07/05 09:34:26;;;;;;;14.65;9.00;;;;;;;22.25;51.52;102190.28;5023837;28;20440;-70
2022/07/05 09:36:58;;;;;;;14.70;9.97;;;;;;;22.25;50.12;102193.09;5024465;28;20040;-70
2022/07/05 09:39:30;;;;;;;16.33;9.02;;;;;;;22.76;51.32;102187.53;5019031;28;20057;-70
2022/07/05 09:42:23;;;;;;;17.05;10.57;;;;;;;23.58;50.45;102189.38;5020320;28;20055;-70
2022/07/05 09:44:53;;;;;;;15.75;9.82;;;;;;;25.80;44.35;102193.59;5014391;28;20072;-69
2022/07/05 09:47:21;;;;;;;17.63;10.32;;;;;;;25.93;43.89;102188.34;5037852;28;20079;-69
2022/07/05 09:49:51;;;;;;;14.18;8.88;;;;;;;25.09;45.83;102185.91;5032498;28;20040;-69
2022/07/05 09:52:35;;;;;;;12.40;5.03;;;;;;;24.45;45.38;102192.63;5021738;28;20520;-70
2022/07/05 09:55:01;;;;;;;13.20;6.22;;;;;;;23.78;44.67;102187.38;5020148;28;20033;-69
2022/07/05 09:57:27;;;;;;;13.10;6.53;;;;;;;23.65;44.92;102185.16;5004213;28;20034;-68
2022/07/05 10:00:09;;;;;;;10.20;6.53;;;;;;;23.76;46.44;102186.81;5030982;28;20059;-69
2022/07/05 10:02:48;;;;;;;12.50;6.30;;;;;;;23.63;46.45;102186.56;5016828;28;20327;-68
2022/07/05 10:05:21;;;;;;;17.40;8.45;;;;;;;22.90;49.22;102190.63;5034450;28;20052;-69
2022/07/05 10:07:54;;;;;;;12.32;6.90;;;;;;;24.29;46.02;102184.28;5034264;28;20037;-69
2022/07/05 10:10:24;;;;;;;12.50;7.07;;;;;;;26.56;40.90;102183.22;5037690;28;20065;-68
2022/07/05 10:12:52;;;;;;;10.18;6.32;;;;;;;28.27;38.34;102178.44;5028218;28;20131;-68
2022/07/05 10:15:21;;;;;;;13.60;6.93;;;;;;;27.84;37.29;102184.50;5027185;28;20029;-68
2022/07/05 10:18:04;;;;;;;12.07;6.43;;;;;;;28.85;37.34;102183.25;5029351;28;20564;-68
2022/07/05 10:20:42;;;;;;;11.63;6.43;;;;;;;30.44;34.88;102188.00;5037293;28;20075;-68
2022/07/05 10:23:10;;;;;;;11.10;6.03;;;;;;;29.52;33.82;102182.28;5031230;28;20025;-68
2022/07/05 10:25:36;;;;;;;13.35;6.35;;;;;;;30.00;33.41;102184.28;5008166;28;20092;-68
2022/07/05 10:28:03;;;;;;;11.20;6.47;;;;;;;30.60;32.06;102183.50;5023162;28;20025;-67
2022/07/05 10:30:29;;;;;;;10.85;6.63;;;;;;;31.17;31.58;102188.91;5028336;28;20096;-67
2022/07/05 10:32:56;;;;;;;12.82;6.53;;;;;;;30.05;32.96;102186.13;5028786;28;20424;-67
2022/07/05 10:35:21;;;;;;;10.57;5.60;;;;;;;28.59;35.09;102179.38;5026554;28;20111;-67
2022/07/05 10:37:48;;;;;;;12.88;6.65;;;;;;;26.74;37.30;102189.13;5022945;28;20476;-67
2022/07/05 10:40:14;;;;;;;11.32;5.85;;;;;;;26.89;38.61;102181.22;5027662;28;20164;-69
2022/07/05 10:42:48;;;;;;;9.65;4.05;;;;;;;28.13;34.62;102172.84;5027857;28;20037;-68
2022/07/05 10:45:49;;;;;;;9.68;4.30;;;;;;;27.66;38.07;102179.78;5027202;28;20036;-68
2022/07/05 10:48:28;;;;;;;9.60;4.13;;;;;;;26.88;37.22;102176.75;5040502;28;20065;-68
2022/07/05 10:50:57;;;;;;;8.85;4.07;;;;;;;25.48;39.52;102171.72;5029062;28;20057;-68
2022/07/05 10:53:32;;;;;;;8.63;3.95;;;;;;;25.34;39.76;102171.59;5028077;28;20033;-68
2022/07/05 10:56:04;;;;;;;9.07;4.10;;;;;;;25.24;40.35;102160.47;5025514;28;20022;-67
2022/07/05 10:58:44;;;;;;;8.88;4.40;;;;;;;25.19;41.52;102166.13;5027248;28;20499;-69
2022/07/05 11:01:13;;;;;;;9.25;4.63;;;;;;;25.01;41.94;102180.91;5028241;28;20036;-68
2022/07/05 11:03:43;;;;;;;9.55;4.13;;;;;;;24.88;42.43;102175.97;5037742;28;20075;-68
2022/07/05 11:06:19;;;;;;;11.43;4.05;;;;;;;24.81;43.34;102171.53;5042012;28;20124;-69
2022/07/05 11:08:57;;;;;;;9.68;4.35;;;;;;;24.81;44.01;102179.97;5036462;28;20022;-68
2022/07/05 11:11:42;;;;;;;9.55;4.10;;;;;;;24.28;43.91;102182.59;5026744;28;20025;-69
2022/07/05 11:14:22;;;;;;;11.02;4.25;;;;;;;23.71;46.45;102184.00;5027543;28;20029;-68
2022/07/05 11:17:09;;;;;;;9.18;4.85;;;;;;;23.24;49.22;102182.47;5024147;28;20038;-69
2022/07/05 11:19:55;;;;;;;8.52;5.05;;;;;;;22.80;51.89;102193.41;5025902;28;20033;-68
2022/07/05 11:22:20;;;;;;;11.98;5.53;;;;;;;22.46;51.15;102195.94;5029376;28;20060;-69